createdAt,value
2023-04-09T00:01:43.467Z,12.17
2023-04-09T00:04:11.777Z,12.15
2023-04-09T00:06:41.153Z,12.13
2023-04-09T00:09:09.304Z,12.10
2023-04-09T00:11:37.576Z,12.08
2023-04-09T00:14:05.767Z,12.05
2023-04-09T00:16:33.579Z,12.03
2023-04-09T00:19:02.157Z,12.02
2023-04-09T00:21:30.396Z,11.99
2023-04-09T00:23:59.881Z,11.98
2023-04-09T00:26:28.453Z,11.93
2023-04-09T00:28:56.537Z,11.91
2023-04-09T00:31:24.485Z,11.89
2023-04-09T00:33:52.854Z,11.87
2023-04-09T00:36:21.103Z,11.85
2023-04-09T00:38:49.143Z,11.82
2023-04-09T00:41:19.807Z,11.81
2023-04-09T00:43:48.042Z,11.78
2023-04-09T00:46:16.219Z,11.75
2023-04-09T00:48:45.099Z,11.71
2023-04-09T00:51:13.125Z,11.68
2023-04-09T00:53:41.746Z,11.64
2023-04-09T00:56:11.742Z,11.61
2023-04-09T00:58:42.114Z,11.58
2023-04-09T01:01:10.252Z,11.52
2023-04-09T01:03:39.330Z,11.48
2023-04-09T01:06:11.796Z,11.46
2023-04-09T01:08:53.210Z,11.43
2023-04-09T01:11:31.479Z,11.39
2023-04-09T01:14:07.831Z,11.34
2023-04-09T01:16:38.768Z,11.31
2023-04-09T01:19:16.888Z,11.28
2023-04-09T01:21:46.515Z,11.24
2023-04-09T01:24:20.816Z,11.28
2023-04-09T01:26:58.614Z,11.26
2023-04-09T01:29:33.384Z,11.23
2023-04-09T01:32:03.459Z,11.19
2023-04-09T01:34:32.277Z,11.16
2023-04-09T01:37:03.869Z,11.16
2023-04-09T01:39:32.485Z,11.16
2023-04-09T01:42:02.208Z,11.16
2023-04-09T01:44:34.227Z,11.23
2023-04-09T01:47:02.968Z,11.20
2023-04-09T01:49:32.405Z,11.17
2023-04-09T01:52:02.046Z,11.16
2023-04-09T01:54:29.860Z,11.21
2023-04-09T01:56:58.856Z,11.17
2023-04-09T01:59:27.398Z,11.13
2023-04-09T02:02:01.416Z,11.12
2023-04-09T02:04:34.855Z,11.08
2023-04-09T02:07:11.081Z,11.06
2023-04-09T02:09:42.460Z,11.03
2023-04-09T02:12:14.211Z,11.01
2023-04-09T02:14:44.251Z,10.98
2023-04-09T02:17:14.434Z,10.98
2023-04-09T02:19:43.590Z,10.95
2023-04-09T02:22:12.917Z,10.92
2023-04-09T02:24:41.604Z,10.89
2023-04-09T02:27:10.179Z,10.86
2023-04-09T02:29:38.786Z,10.85
2023-04-09T02:32:07.624Z,10.84
2023-04-09T02:34:37.252Z,10.84
2023-04-09T02:37:05.692Z,10.81
2023-04-09T02:39:33.924Z,10.80
2023-04-09T02:42:02.324Z,10.78
2023-04-09T02:44:30.761Z,10.77
2023-04-09T02:46:58.885Z,10.76
2023-04-09T02:49:27.154Z,10.74
2023-04-09T02:51:56.913Z,10.73
2023-04-09T02:54:24.921Z,10.71
2023-04-09T02:56:52.981Z,10.68
2023-04-09T02:59:21.467Z,10.68
2023-04-09T03:01:49.588Z,10.66
2023-04-09T03:04:17.943Z,10.65
2023-04-09T03:06:46.334Z,10.64
2023-04-09T03:09:16.208Z,10.63
2023-04-09T03:11:44.641Z,10.62
2023-04-09T03:14:12.825Z,10.61
2023-04-09T03:16:41.308Z,10.59
2023-04-09T03:19:10.065Z,10.59
2023-04-09T03:21:38.112Z,10.58
2023-04-09T03:24:06.598Z,10.58
2023-04-09T03:26:37.631Z,10.59
2023-04-09T03:29:06.137Z,10.56
2023-04-09T03:31:34.506Z,10.58
2023-04-09T03:34:02.678Z,10.58
2023-04-09T03:36:31.392Z,10.57
2023-04-09T03:39:00.504Z,10.57
2023-04-09T03:41:29.370Z,10.57
2023-04-09T03:43:58.881Z,10.58
2023-04-09T03:46:27.312Z,10.56
2023-04-09T03:48:55.964Z,10.53
2023-04-09T03:51:24.103Z,10.52
2023-04-09T03:53:52.475Z,10.50
2023-04-09T03:56:20.891Z,10.47
2023-04-09T03:58:49.857Z,10.44
2023-04-09T04:01:19.430Z,10.44
2023-04-09T04:03:48.298Z,10.41
2023-04-09T04:06:16.354Z,10.38
2023-04-09T04:08:44.848Z,10.36
2023-04-09T04:11:13.208Z,10.35
2023-04-09T04:13:41.024Z,10.32
2023-04-09T04:16:10.084Z,10.31
2023-04-09T04:18:40.027Z,10.30
2023-04-09T04:21:14.278Z,10.26
2023-04-09T04:23:42.906Z,10.24
2023-04-09T04:26:11.839Z,10.22
2023-04-09T04:28:40.600Z,10.21
2023-04-09T04:31:11.940Z,10.20
2023-04-09T04:33:43.749Z,10.17
2023-04-09T04:36:13.617Z,10.13
2023-04-09T04:38:42.828Z,10.13
2023-04-09T04:41:12.198Z,10.13
2023-04-09T04:43:41.867Z,10.11
2023-04-09T04:46:09.697Z,10.17
2023-04-09T04:48:37.388Z,10.15
2023-04-09T04:51:07.106Z,10.13
2023-04-09T04:53:34.608Z,10.16
2023-04-09T04:56:02.284Z,10.12
2023-04-09T04:58:31.111Z,10.09
2023-04-09T05:01:00.289Z,10.06
2023-04-09T05:03:28.105Z,10.04
2023-04-09T05:05:56.379Z,10.01
2023-04-09T05:08:25.428Z,10.01
2023-04-09T05:10:56.266Z,9.99
2023-04-09T05:13:24.081Z,9.96
2023-04-09T05:15:51.864Z,9.96
2023-04-09T05:18:19.888Z,9.95
2023-04-09T05:20:47.563Z,9.97
2023-04-09T05:23:15.813Z,9.97
2023-04-09T05:25:45.223Z,9.98
2023-04-09T05:28:12.925Z,9.97
2023-04-09T05:30:40.611Z,9.98
2023-04-09T05:33:08.363Z,9.98
2023-04-09T05:35:39.656Z,10.03
2023-04-09T05:38:07.467Z,10.03
2023-04-09T05:40:35.731Z,10.04
2023-04-09T05:43:04.752Z,10.08
2023-04-09T05:45:32.446Z,10.09
2023-04-09T05:48:00.539Z,10.12
2023-04-09T05:50:28.303Z,10.16
2023-04-09T05:52:56.057Z,10.19
2023-04-09T05:55:24.089Z,10.24
2023-04-09T05:57:53.316Z,10.30
2023-04-09T06:00:22.723Z,10.35
2023-04-09T06:02:51.072Z,10.40
2023-04-09T06:05:18.860Z,10.45
2023-04-09T06:07:46.693Z,10.52
2023-04-09T06:10:14.720Z,10.58
2023-04-09T06:12:42.418Z,10.66
2023-04-09T06:15:10.927Z,10.73
2023-04-09T06:17:40.404Z,10.79
2023-04-09T06:20:09.119Z,10.84
2023-04-09T06:22:36.786Z,10.91
2023-04-09T06:25:05.293Z,10.97
2023-04-09T06:27:33.037Z,11.04
2023-04-09T06:30:00.730Z,11.10
2023-04-09T06:32:28.988Z,11.17
2023-04-09T06:34:58.321Z,11.23
2023-04-09T06:37:25.978Z,11.31
2023-04-09T06:40:01.083Z,11.39
2023-04-09T06:42:29.416Z,11.46
2023-04-09T06:44:57.664Z,11.53
2023-04-09T06:47:25.394Z,11.59
2023-04-09T06:49:53.157Z,11.65
2023-04-09T06:52:22.540Z,11.72
2023-04-09T06:54:50.224Z,11.80
2023-04-09T06:57:17.937Z,11.87
2023-04-09T06:59:46.219Z,11.95
2023-04-09T07:02:13.995Z,12.05
2023-04-09T07:04:41.895Z,12.14
2023-04-09T07:07:10.000Z,12.25
2023-04-09T07:09:39.570Z,12.38
2023-04-09T07:12:07.112Z,12.51
2023-04-09T07:14:35.130Z,12.64
2023-04-09T07:17:02.794Z,12.77
2023-04-09T07:19:30.941Z,12.88
2023-04-09T07:21:59.000Z,12.99
2023-04-09T07:24:26.664Z,13.12
2023-04-09T07:26:56.288Z,13.24
2023-04-09T07:29:24.167Z,13.38
2023-04-09T07:31:51.870Z,13.48
2023-04-09T07:34:19.587Z,13.59
2023-04-09T07:36:47.533Z,13.67
2023-04-09T07:39:15.648Z,13.76
2023-04-09T07:41:43.561Z,13.85
2023-04-09T07:44:13.161Z,13.96
2023-04-09T07:46:41.332Z,14.08
2023-04-09T07:49:09.120Z,14.17
2023-04-09T07:51:37.071Z,14.29
2023-04-09T07:54:05.146Z,14.36
2023-04-09T07:56:32.812Z,14.48
2023-04-09T07:59:00.873Z,14.59
2023-04-09T08:01:29.962Z,14.71
2023-04-09T08:03:57.869Z,14.82
2023-04-09T08:06:26.710Z,14.95
2023-04-09T08:08:54.668Z,15.05
2023-04-09T08:11:25.265Z,15.16
2023-04-09T08:13:53.281Z,15.28
2023-04-09T08:16:23.553Z,15.39
2023-04-09T08:18:53.035Z,15.52
2023-04-09T08:21:21.495Z,15.64
2023-04-09T08:23:49.277Z,15.74
2023-04-09T08:26:16.944Z,15.85
2023-04-09T08:28:45.047Z,15.93
2023-04-09T08:31:12.724Z,16.03
2023-04-09T08:33:40.440Z,16.14
2023-04-09T08:36:12.117Z,16.25
2023-04-09T08:38:40.592Z,16.34
2023-04-09T08:41:08.457Z,16.46
2023-04-09T08:43:53.252Z,16.56
2023-04-09T08:46:26.033Z,16.70
2023-04-09T08:48:54.494Z,16.80
2023-04-09T08:51:24.969Z,16.93
2023-04-09T08:53:58.348Z,17.04
2023-04-09T08:56:26.512Z,17.17
2023-04-09T08:58:56.348Z,17.27
2023-04-09T09:01:27.200Z,17.38
2023-04-09T09:04:00.546Z,17.49
2023-04-09T09:06:33.490Z,17.59
2023-04-09T09:09:06.116Z,17.65
2023-04-09T09:11:34.848Z,17.67
2023-04-09T09:14:03.592Z,17.73
2023-04-09T09:16:33.211Z,17.78
2023-04-09T09:19:01.244Z,17.88
2023-04-09T09:21:31.052Z,17.87
2023-04-09T09:23:59.229Z,17.90
2023-04-09T09:26:29.318Z,17.93
2023-04-09T09:28:58.913Z,17.96
2023-04-09T09:31:26.774Z,17.99
2023-04-09T09:33:55.778Z,18.03
2023-04-09T09:36:35.803Z,18.07
2023-04-09T09:39:10.273Z,18.07
2023-04-09T09:41:38.502Z,18.09
2023-04-09T09:44:07.221Z,18.11
2023-04-09T09:46:36.916Z,18.16
2023-04-09T09:49:04.445Z,18.20
2023-04-09T09:51:37.253Z,18.26
2023-04-09T09:54:08.085Z,18.28
2023-04-09T09:56:38.768Z,18.30
2023-04-09T09:59:08.684Z,18.34
2023-04-09T10:01:37.169Z,18.34
2023-04-09T10:04:07.885Z,18.36
2023-04-09T10:06:38.767Z,18.36
2023-04-09T10:09:07.759Z,18.37
2023-04-09T10:11:38.308Z,18.36
2023-04-09T10:14:06.206Z,18.34
2023-04-09T10:16:34.776Z,18.31
2023-04-09T10:19:03.755Z,18.37
2023-04-09T10:21:42.889Z,18.43
2023-04-09T10:24:11.770Z,18.50
2023-04-09T10:26:42.343Z,18.58
2023-04-09T10:29:14.452Z,18.63
2023-04-09T10:31:55.116Z,18.71
2023-04-09T10:34:25.106Z,18.74
2023-04-09T10:36:57.662Z,18.76
2023-04-09T10:39:28.217Z,18.83
2023-04-09T10:41:57.259Z,18.84
2023-04-09T10:44:26.328Z,18.86
2023-04-09T10:46:55.348Z,18.84
2023-04-09T10:49:24.481Z,18.81
2023-04-09T10:51:55.373Z,18.80
2023-04-09T10:54:47.058Z,18.73
2023-04-09T10:57:20.255Z,18.69
2023-04-09T10:59:49.568Z,18.68
2023-04-09T11:02:46.659Z,18.64
2023-04-09T11:05:34.838Z,18.64
2023-04-09T11:08:09.788Z,18.64
2023-04-09T11:10:38.591Z,18.63
2023-04-09T11:13:06.983Z,18.61
2023-04-09T11:15:37.597Z,18.62
2023-04-09T11:18:07.027Z,18.59
2023-04-09T11:20:35.628Z,18.59
2023-04-09T11:23:04.081Z,18.56
2023-04-09T11:25:34.969Z,18.54
2023-04-09T11:28:04.931Z,18.48
2023-04-09T11:30:34.382Z,18.50
2023-04-09T11:33:02.540Z,18.48
2023-04-09T11:35:30.580Z,18.53
2023-04-09T11:37:58.327Z,18.63
2023-04-09T11:40:29.021Z,18.71
2023-04-09T11:42:58.498Z,18.89
2023-04-09T11:45:28.457Z,18.99
2023-04-09T11:47:56.580Z,19.09
2023-04-09T11:50:25.278Z,19.11
2023-04-09T11:52:53.403Z,19.28
2023-04-09T11:55:25.815Z,19.36
2023-04-09T11:57:55.597Z,19.46
2023-04-09T12:00:25.091Z,19.57
2023-04-09T12:02:59.815Z,19.66
2023-04-09T12:05:30.118Z,19.74
2023-04-09T12:08:02.271Z,19.79
2023-04-09T12:10:31.308Z,19.81
2023-04-09T12:13:03.336Z,19.86
2023-04-09T12:15:35.119Z,19.92
2023-04-09T12:18:03.890Z,19.98
2023-04-09T12:20:33.889Z,19.91
2023-04-09T12:23:03.711Z,20.03
2023-04-09T12:25:32.153Z,20.08
2023-04-09T12:28:00.051Z,20.10
2023-04-09T12:30:28.153Z,20.11
2023-04-09T12:32:57.642Z,20.11
2023-04-09T12:35:25.367Z,20.14
2023-04-09T12:37:53.113Z,20.15
2023-04-09T12:40:21.580Z,20.17
2023-04-09T12:42:49.556Z,20.21
2023-04-09T12:45:19.674Z,20.24
2023-04-09T12:47:48.145Z,20.27
2023-04-09T12:50:17.492Z,20.30
2023-04-09T12:52:45.993Z,20.29
2023-04-09T12:55:14.957Z,20.28
2023-04-09T12:57:44.754Z,20.24
2023-04-09T13:00:13.804Z,20.20
2023-04-09T13:02:42.021Z,20.15
2023-04-09T13:05:10.031Z,20.12
2023-04-09T13:07:41.500Z,20.10
2023-04-09T13:10:10.928Z,20.05
2023-04-09T13:12:38.676Z,20.03
2023-04-09T13:15:07.633Z,19.99
2023-04-09T13:17:35.472Z,19.98
2023-04-09T13:20:03.832Z,19.96
2023-04-09T13:22:31.512Z,19.96
2023-04-09T13:25:00.907Z,20.00
2023-04-09T13:27:28.589Z,19.86
2023-04-09T13:29:56.275Z,19.95
2023-04-09T13:32:24.519Z,19.98
2023-04-09T13:34:53.691Z,20.01
2023-04-09T13:37:21.419Z,20.05
2023-04-09T13:39:49.109Z,20.07
2023-04-09T13:42:18.302Z,20.07
2023-04-09T13:44:46.120Z,20.07
2023-04-09T13:47:16.068Z,20.06
2023-04-09T13:49:44.214Z,20.04
2023-04-09T13:52:12.379Z,20.03
2023-04-09T13:54:40.903Z,20.02
2023-04-09T13:57:08.622Z,20.01
2023-04-09T13:59:38.050Z,20.02
2023-04-09T14:02:06.292Z,20.01
2023-04-09T14:04:34.105Z,20.00
2023-04-09T14:07:01.876Z,19.98
2023-04-09T14:09:29.855Z,19.97
2023-04-09T14:11:57.756Z,19.96
2023-04-09T14:14:25.980Z,19.97
2023-04-09T14:16:55.745Z,19.97
2023-04-09T14:19:23.994Z,19.96
2023-04-09T14:21:53.202Z,19.88
2023-04-09T14:24:23.281Z,19.92
2023-04-09T14:26:53.049Z,19.93
2023-04-09T14:29:20.961Z,19.94
2023-04-09T14:31:49.046Z,19.93
2023-04-09T14:34:19.364Z,19.98
2023-04-09T14:36:47.249Z,19.98
2023-04-09T14:39:15.226Z,19.98
2023-04-09T14:41:42.926Z,19.97
2023-04-09T14:44:10.680Z,19.98
2023-04-09T14:46:38.759Z,19.99
2023-04-09T14:49:06.485Z,19.98
2023-04-09T14:51:35.780Z,20.00
2023-04-09T14:54:03.776Z,20.01
2023-04-09T14:56:31.521Z,20.02
2023-04-09T14:58:59.207Z,20.03
2023-04-09T15:01:27.722Z,20.04
2023-04-09T15:03:56.041Z,20.01
2023-04-09T15:06:23.988Z,20.05
2023-04-09T15:08:53.614Z,20.06
2023-04-09T15:11:22.832Z,20.04
2023-04-09T15:13:50.727Z,20.03
2023-04-09T15:16:22.725Z,20.04
2023-04-09T15:18:52.347Z,20.02
2023-04-09T15:21:20.726Z,20.01
2023-04-09T15:23:48.789Z,19.99
2023-04-09T15:26:17.826Z,20.01
2023-04-09T15:28:46.111Z,20.00
2023-04-09T15:31:14.718Z,19.97
2023-04-09T15:33:44.750Z,19.97
2023-04-09T15:36:12.630Z,19.95
2023-04-09T15:38:41.001Z,19.95
2023-04-09T15:41:08.708Z,19.95
2023-04-09T15:43:37.769Z,19.94
2023-04-09T15:46:10.480Z,19.94
2023-04-09T15:48:38.437Z,19.92
2023-04-09T15:51:06.496Z,19.91
2023-04-09T15:53:34.689Z,19.91
2023-04-09T15:56:02.394Z,19.89
2023-04-09T15:58:30.072Z,19.88
2023-04-09T16:06:42.258Z,19.85
2023-04-09T16:09:09.974Z,19.83
2023-04-09T16:11:37.686Z,19.85
2023-04-09T16:14:05.878Z,19.83
2023-04-09T16:16:34.966Z,19.84
2023-04-09T16:19:02.901Z,19.84
2023-04-09T16:21:31.382Z,19.85
2023-04-09T16:23:59.082Z,19.87
2023-04-09T16:26:26.839Z,19.87
2023-04-09T16:28:55.290Z,19.81
2023-04-09T16:31:23.276Z,19.82
2023-04-09T16:33:52.336Z,19.82
2023-04-09T16:36:20.731Z,19.83
2023-04-09T16:38:49.556Z,19.84
2023-04-09T16:41:17.270Z,19.82
2023-04-09T16:43:46.987Z,19.84
2023-04-09T16:46:14.747Z,19.83
2023-04-09T16:48:42.493Z,19.82
2023-04-09T16:51:12.235Z,19.84
2023-04-09T16:53:40.132Z,19.84
2023-04-09T16:56:08.865Z,19.83
2023-04-09T16:58:37.060Z,19.83
2023-04-09T17:01:05.040Z,19.82
2023-04-09T17:03:33.170Z,19.79
2023-04-09T17:06:02.359Z,19.78
2023-04-09T17:08:31.798Z,19.75
2023-04-09T17:11:03.218Z,19.74
2023-04-09T17:13:31.571Z,19.72
2023-04-09T17:15:59.498Z,19.70
2023-04-09T17:18:27.878Z,19.68
2023-04-09T17:20:55.817Z,19.65
2023-04-09T17:23:23.550Z,19.63
2023-04-09T17:25:53.603Z,19.60
2023-04-09T17:28:21.409Z,19.58
2023-04-09T17:30:49.227Z,19.53
2023-04-09T17:33:17.569Z,19.55
2023-04-09T17:35:45.360Z,19.53
2023-04-09T17:38:17.679Z,19.52
2023-04-09T17:40:45.351Z,19.50
2023-04-09T17:43:15.085Z,19.49
2023-04-09T17:45:43.362Z,19.46
2023-04-09T17:48:11.053Z,19.45
2023-04-09T17:50:39.597Z,19.41
2023-04-09T17:53:08.009Z,19.39
2023-04-09T17:55:35.775Z,19.37
2023-04-09T17:58:04.070Z,19.34
2023-04-09T18:00:34.830Z,19.32
2023-04-09T18:03:02.906Z,19.28
2023-04-09T18:05:31.076Z,19.26
2023-04-09T18:08:00.214Z,19.23
2023-04-09T18:10:28.018Z,19.16
2023-04-09T18:12:55.786Z,19.16
2023-04-09T18:15:24.118Z,19.13
2023-04-09T18:17:53.257Z,19.12
2023-04-09T18:20:21.039Z,19.07
2023-04-09T18:22:49.505Z,19.04
2023-04-09T18:25:17.294Z,19.00
2023-04-09T18:27:45.269Z,18.97
2023-04-09T18:30:13.908Z,18.94
2023-04-09T18:32:41.973Z,18.91
2023-04-09T18:35:11.435Z,18.91
2023-04-09T18:37:39.573Z,18.86
2023-04-09T18:40:08.714Z,18.83
2023-04-09T18:42:36.585Z,18.80
2023-04-09T18:45:05.096Z,18.77
2023-04-09T18:47:32.784Z,18.74
2023-04-09T18:50:00.573Z,18.70
2023-04-09T18:52:30.175Z,18.67
2023-04-09T18:54:57.784Z,18.68
2023-04-09T18:57:25.449Z,18.61
2023-04-09T18:59:53.665Z,18.57
2023-04-09T19:02:21.477Z,18.52
2023-04-09T19:04:49.359Z,18.47
2023-04-09T19:07:17.677Z,18.42
2023-04-09T19:09:46.944Z,18.38
2023-04-09T19:12:14.628Z,18.32
2023-04-09T19:14:42.859Z,18.27
2023-04-09T19:17:11.670Z,18.22
2023-04-09T19:19:39.313Z,18.18
2023-04-09T19:22:07.539Z,18.14
2023-04-09T19:24:35.571Z,18.07
2023-04-09T19:27:10.174Z,17.99
2023-04-09T19:29:37.991Z,17.97
2023-04-09T19:32:06.203Z,17.93
2023-04-09T19:34:34.386Z,17.89
2023-04-09T19:37:02.460Z,17.85
2023-04-09T19:39:30.363Z,17.81
2023-04-09T19:41:58.604Z,17.76
2023-04-09T19:44:27.641Z,17.73
2023-04-09T19:46:55.427Z,17.68
2023-04-09T19:49:23.673Z,17.65
2023-04-09T19:51:51.345Z,17.60
2023-04-09T19:54:19.079Z,17.56
2023-04-09T19:56:47.169Z,17.52
2023-04-09T19:59:15.683Z,17.48
2023-04-09T20:01:44.811Z,17.44
2023-04-09T20:04:13.440Z,17.40
2023-04-09T20:06:43.812Z,17.38
2023-04-09T20:09:12.405Z,17.34
2023-04-09T20:11:40.821Z,17.30
2023-04-09T20:14:08.509Z,17.26
2023-04-09T20:16:36.255Z,17.22
2023-04-09T20:19:06.236Z,17.21
2023-04-09T20:21:34.281Z,17.17
2023-04-09T20:24:02.463Z,17.14
2023-04-09T20:26:30.425Z,17.12
2023-04-09T20:28:58.785Z,17.09
2023-04-09T20:31:27.389Z,17.07
2023-04-09T20:33:55.442Z,17.05
2023-04-09T20:36:24.477Z,17.04
2023-04-09T20:38:52.320Z,17.02
2023-04-09T20:41:20.317Z,16.99
2023-04-09T20:43:47.944Z,16.96
2023-04-09T20:46:15.733Z,16.94
2023-04-09T20:48:44.171Z,16.93
2023-04-09T20:51:12.565Z,16.90
2023-04-09T20:53:41.584Z,16.89
2023-04-09T20:56:09.718Z,16.88
2023-04-09T20:58:37.710Z,16.87
2023-04-09T21:01:07.217Z,16.85
2023-04-09T21:03:36.090Z,16.90
2023-04-09T21:06:04.104Z,16.89
2023-04-09T21:08:31.880Z,16.85
2023-04-09T21:11:01.129Z,16.84
2023-04-09T21:13:28.893Z,16.81
2023-04-09T21:15:57.925Z,16.79
2023-04-09T21:18:25.814Z,16.77
2023-04-09T21:20:53.451Z,16.76
2023-04-09T21:23:21.152Z,16.74
2023-04-09T21:25:49.424Z,16.73
2023-04-09T21:28:18.464Z,16.72
2023-04-09T21:30:46.206Z,16.71
2023-04-09T21:33:14.364Z,16.69
2023-04-09T21:35:42.089Z,16.67
2023-04-09T21:38:09.949Z,16.66
2023-04-09T21:40:38.569Z,16.65
2023-04-09T21:43:06.650Z,16.64
2023-04-09T21:45:35.677Z,16.63
2023-04-09T21:48:04.600Z,16.58
2023-04-09T21:50:32.563Z,16.56
2023-04-09T21:53:00.615Z,16.55
2023-04-09T21:55:28.860Z,16.51
2023-04-09T21:57:56.590Z,16.47
2023-04-09T22:00:24.398Z,16.45
2023-04-09T22:02:54.406Z,16.42
2023-04-09T22:05:23.215Z,16.39
2023-04-09T22:07:51.044Z,16.38
2023-04-09T22:10:19.735Z,16.35
2023-04-09T22:12:47.421Z,16.33
2023-04-09T22:15:15.374Z,16.30
2023-04-09T22:17:44.984Z,16.28
2023-04-09T22:20:14.101Z,16.30
2023-04-09T22:22:42.414Z,16.28
2023-04-09T22:25:12.474Z,16.23
2023-04-09T22:27:40.253Z,16.20
2023-04-09T22:30:09.319Z,16.16
2023-04-09T22:32:37.499Z,16.14
2023-04-09T22:35:06.325Z,16.12
2023-04-09T22:37:36.172Z,16.12
2023-04-09T22:40:04.540Z,16.08
2023-04-09T22:42:32.983Z,16.07
2023-04-09T22:45:00.793Z,16.04
2023-04-09T22:47:29.054Z,16.01
2023-04-09T22:49:56.976Z,16.01
2023-04-09T22:52:24.740Z,15.98
2023-04-09T22:54:54.334Z,15.97
2023-04-09T22:57:21.831Z,15.99
2023-04-09T22:59:49.619Z,15.96
2023-04-09T23:02:17.901Z,15.91
2023-04-09T23:04:45.965Z,15.86
2023-04-09T23:07:13.638Z,15.82
2023-04-09T23:09:41.854Z,15.78
2023-04-09T23:12:10.899Z,15.76
2023-04-09T23:14:38.602Z,15.72
2023-04-09T23:17:06.855Z,15.69
2023-04-09T23:19:34.530Z,15.65
2023-04-09T23:22:02.194Z,15.63
2023-04-09T23:24:30.382Z,15.59
2023-04-09T23:26:58.046Z,15.55
2023-04-09T23:29:27.152Z,15.53
2023-04-09T23:31:55.413Z,15.49
2023-04-09T23:34:23.177Z,15.46
2023-04-09T23:36:51.602Z,15.42
2023-04-09T23:39:19.502Z,15.37
2023-04-09T23:41:47.227Z,15.35
2023-04-09T23:44:14.923Z,15.32
2023-04-09T23:46:44.174Z,15.28
2023-04-09T23:49:11.845Z,15.23
2023-04-09T23:51:39.561Z,15.21
2023-04-09T23:54:07.563Z,15.18
2023-04-09T23:56:35.478Z,15.13
2023-04-09T23:59:03.152Z,15.10
